This is the latest recevied weather packets stored in our database for station/object CX5ACA-13. If no packets are shown the sender has not sent any weather packets the latest 1 day(s).
| Time | Temp. | Humidity | Pressure | Rain* | Wind** | Luminosity | Snow |
|---|---|---|---|---|---|---|---|
| 1778072726 | 20° C | 93% | 1013.8 hPa | 0 mm | - | 107 W/m² | - |
| 1778071819 | 20.56° C | 92% | 1013.8 hPa | 0 mm | - | 91 W/m² | - |
| 1778070610 | 21.67° C | 90% | 1014 hPa | 0 mm | - | 59 W/m² | - |
| 1778069398 | 21.67° C | 89% | 1013.7 hPa | 0 mm | - | 164 W/m² | - |
| 1778068189 | 20° C | 94% | 1013.9 hPa | 0 mm | - | 62 W/m² | - |
| 1778067886 | 20° C | 96% | 1013.8 hPa | 0 mm | - | 60 W/m² | - |
| 1778067282 | 19.44° C | 97% | 1013.4 hPa | 0 mm | - | 29 W/m² | - |
| 1778066978 | 19.44° C | 97% | 1013.7 hPa | 0 mm | - | 27 W/m² | - |
| 1778066676 | 19.44° C | 97% | 1013.6 hPa | 0 mm | - | 25 W/m² | - |
| 1778066373 | 19.44° C | 98% | 1013.7 hPa | 0 mm | - | 25 W/m² | - |
| 1778066071 | 18.89° C | 98% | 1013.7 hPa | 0 mm | - | 26 W/m² | - |
| 1778065768 | 18.89° C | 98% | 1013.7 hPa | 0 mm | - | 25 W/m² | - |
| 1778065162 | 18.89° C | 99% | 1013.8 hPa | 0 mm | - | 19 W/m² | - |
| 1778062740 | 18.89° C | 99% | 1013.7 hPa | 0 mm | - | 1 W/m² | - |
| 1778062134 | 18.89° C | 98% | 1013.7 hPa | 0 mm | - | 0 W/m² | - |
| 1778061530 | 18.89° C | 98% | 1013.4 hPa | 0 mm | - | 0 W/m² | - |
| 1778061228 | 18.89° C | 98% | 1013.5 hPa | 0 mm | - | 0 W/m² | - |
| 1778060924 | 18.89° C | 98% | 1013.4 hPa | 0 mm | - | 0 W/m² | - |
| 1778060018 | 19.44° C | 98% | 1013.4 hPa | 0 mm | - | 0 W/m² | - |
| 1778059413 | 19.44° C | 98% | 1013.6 hPa | 0 mm | - | 0 W/m² | - |
| 1778058505 | 19.44° C | 98% | 1013.6 hPa | 0 mm | - | 0 W/m² | - |
| 1778057595 | 18.89° C | 98% | 1013.7 hPa | 0 mm | - | 0 W/m² | - |
| 1778057292 | 18.89° C | 98% | 1013.7 hPa | 0 mm | - | 0 W/m² | - |
| 1778056685 | 18.89° C | 98% | 1013.5 hPa | 0 mm | - | 0 W/m² | - |
| 1778056080 | 18.89° C | 98% | 1013.4 hPa | 0 mm | - | 0 W/m² | - |
* Rain latest hour (hover to see other rain measurements)
** Current wind speed in m/s (hover to see current wind gust speed)